sensor_id;sensor_type;location;lat;lon;timestamp;temperature;humidity
47382;DHT22;33128;51.580;5.170;2024-02-16T00:01:37;12.50;99.90
47382;DHT22;33128;51.580;5.170;2024-02-16T00:04:06;12.40;99.90
47382;DHT22;33128;51.580;5.170;2024-02-16T00:06:32;12.40;99.90
47382;DHT22;33128;51.580;5.170;2024-02-16T00:08:59;12.40;99.90
47382;DHT22;33128;51.580;5.170;2024-02-16T00:11:25;12.50;99.90
47382;DHT22;33128;51.580;5.170;2024-02-16T00:13:50;12.50;99.90
47382;DHT22;33128;51.580;5.170;2024-02-16T00:16:16;12.50;99.90
47382;DHT22;33128;51.580;5.170;2024-02-16T00:18:43;12.50;99.90
47382;DHT22;33128;51.580;5.170;2024-02-16T00:21:09;12.40;99.90
47382;DHT22;33128;51.580;5.170;2024-02-16T00:23:34;12.40;99.90
47382;DHT22;33128;51.580;5.170;2024-02-16T00:26:01;12.30;99.90
47382;DHT22;33128;51.580;5.170;2024-02-16T00:28:27;12.30;99.90
47382;DHT22;33128;51.580;5.170;2024-02-16T00:30:52;12.20;99.90
47382;DHT22;33128;51.580;5.170;2024-02-16T00:33:24;12.20;99.90
47382;DHT22;33128;51.580;5.170;2024-02-16T00:35:50;12.20;99.90
47382;DHT22;33128;51.580;5.170;2024-02-16T00:38:17;12.20;99.90
47382;DHT22;33128;51.580;5.170;2024-02-16T00:40:42;12.10;99.90
47382;DHT22;33128;51.580;5.170;2024-02-16T00:43:10;12.10;99.90
47382;DHT22;33128;51.580;5.170;2024-02-16T00:45:36;12.20;99.90
47382;DHT22;33128;51.580;5.170;2024-02-16T00:48:02;12.20;99.90
47382;DHT22;33128;51.580;5.170;2024-02-16T00:50:29;12.20;99.90
47382;DHT22;33128;51.580;5.170;2024-02-16T00:52:57;12.30;99.90
47382;DHT22;33128;51.580;5.170;2024-02-16T00:55:24;12.20;99.90
47382;DHT22;33128;51.580;5.170;2024-02-16T00:57:50;12.40;99.90
47382;DHT22;33128;51.580;5.170;2024-02-16T01:00:19;12.40;99.90
47382;DHT22;33128;51.580;5.170;2024-02-16T01:02:49;12.30;99.90
47382;DHT22;33128;51.580;5.170;2024-02-16T01:05:15;12.30;99.90
47382;DHT22;33128;51.580;5.170;2024-02-16T01:07:46;12.20;99.90
47382;DHT22;33128;51.580;5.170;2024-02-16T01:10:11;12.20;99.90
47382;DHT22;33128;51.580;5.170;2024-02-16T01:12:40;12.20;99.90
47382;DHT22;33128;51.580;5.170;2024-02-16T01:15:06;12.20;99.90
47382;DHT22;33128;51.580;5.170;2024-02-16T01:17:31;12.30;99.90
47382;DHT22;33128;51.580;5.170;2024-02-16T01:20:01;12.30;99.90
47382;DHT22;33128;51.580;5.170;2024-02-16T01:22:26;12.30;99.90
47382;DHT22;33128;51.580;5.170;2024-02-16T01:24:54;12.30;99.90
47382;DHT22;33128;51.580;5.170;2024-02-16T01:27:20;12.40;99.90
47382;DHT22;33128;51.580;5.170;2024-02-16T01:29:49;12.40;99.90
47382;DHT22;33128;51.580;5.170;2024-02-16T01:32:15;12.40;99.90
47382;DHT22;33128;51.580;5.170;2024-02-16T01:34:40;12.60;99.90
47382;DHT22;33128;51.580;5.170;2024-02-16T01:37:06;12.50;99.90
47382;DHT22;33128;51.580;5.170;2024-02-16T01:39:32;12.40;99.90
47382;DHT22;33128;51.580;5.170;2024-02-16T01:41:57;12.40;99.90
47382;DHT22;33128;51.580;5.170;2024-02-16T01:44:23;12.50;99.90
47382;DHT22;33128;51.580;5.170;2024-02-16T01:46:49;12.50;99.90
47382;DHT22;33128;51.580;5.170;2024-02-16T01:49:14;12.60;99.90
47382;DHT22;33128;51.580;5.170;2024-02-16T01:51:40;12.60;99.90
47382;DHT22;33128;51.580;5.170;2024-02-16T01:54:08;12.60;99.90
47382;DHT22;33128;51.580;5.170;2024-02-16T01:56:33;12.50;99.90
47382;DHT22;33128;51.580;5.170;2024-02-16T01:58:59;12.60;99.90
47382;DHT22;33128;51.580;5.170;2024-02-16T02:01:24;12.50;99.90
47382;DHT22;33128;51.580;5.170;2024-02-16T02:03:50;12.40;99.90
47382;DHT22;33128;51.580;5.170;2024-02-16T02:06:16;12.30;99.90
47382;DHT22;33128;51.580;5.170;2024-02-16T02:08:42;12.20;99.90
47382;DHT22;33128;51.580;5.170;2024-02-16T02:11:08;12.20;99.90
47382;DHT22;33128;51.580;5.170;2024-02-16T02:13:33;12.20;99.90
47382;DHT22;33128;51.580;5.170;2024-02-16T02:15:59;12.30;99.90
47382;DHT22;33128;51.580;5.170;2024-02-16T02:18:29;12.40;99.90
47382;DHT22;33128;51.580;5.170;2024-02-16T02:20:54;12.20;99.90
47382;DHT22;33128;51.580;5.170;2024-02-16T02:23:20;12.20;99.90
47382;DHT22;33128;51.580;5.170;2024-02-16T02:25:46;12.30;99.90
47382;DHT22;33128;51.580;5.170;2024-02-16T02:28:14;12.30;99.90
47382;DHT22;33128;51.580;5.170;2024-02-16T02:30:41;12.30;99.90
47382;DHT22;33128;51.580;5.170;2024-02-16T02:33:06;12.20;99.90
47382;DHT22;33128;51.580;5.170;2024-02-16T02:35:32;12.20;99.90
47382;DHT22;33128;51.580;5.170;2024-02-16T02:37:58;12.30;99.90
47382;DHT22;33128;51.580;5.170;2024-02-16T02:40:24;12.20;99.90
47382;DHT22;33128;51.580;5.170;2024-02-16T02:42:57;12.30;99.90
47382;DHT22;33128;51.580;5.170;2024-02-16T02:45:22;12.40;99.90
47382;DHT22;33128;51.580;5.170;2024-02-16T02:47:48;12.20;99.90
47382;DHT22;33128;51.580;5.170;2024-02-16T02:50:14;12.10;99.90
47382;DHT22;33128;51.580;5.170;2024-02-16T02:52:44;12.10;99.90
47382;DHT22;33128;51.580;5.170;2024-02-16T02:55:11;12.00;99.90
47382;DHT22;33128;51.580;5.170;2024-02-16T02:57:39;11.90;99.90
47382;DHT22;33128;51.580;5.170;2024-02-16T03:00:14;12.00;99.90
47382;DHT22;33128;51.580;5.170;2024-02-16T03:02:40;11.90;99.90
47382;DHT22;33128;51.580;5.170;2024-02-16T03:05:07;11.80;99.90
47382;DHT22;33128;51.580;5.170;2024-02-16T03:07:33;11.80;99.90
47382;DHT22;33128;51.580;5.170;2024-02-16T03:09:59;11.90;99.90
47382;DHT22;33128;51.580;5.170;2024-02-16T03:12:24;12.00;99.90
47382;DHT22;33128;51.580;5.170;2024-02-16T03:14:50;12.20;99.90
47382;DHT22;33128;51.580;5.170;2024-02-16T03:17:16;12.20;99.90
47382;DHT22;33128;51.580;5.170;2024-02-16T03:19:41;12.30;99.90
47382;DHT22;33128;51.580;5.170;2024-02-16T03:22:07;12.30;99.90
47382;DHT22;33128;51.580;5.170;2024-02-16T03:24:33;12.40;99.90
47382;DHT22;33128;51.580;5.170;2024-02-16T03:26:59;12.10;99.90
47382;DHT22;33128;51.580;5.170;2024-02-16T03:29:27;12.30;99.90
47382;DHT22;33128;51.580;5.170;2024-02-16T03:31:53;12.40;99.90
47382;DHT22;33128;51.580;5.170;2024-02-16T03:34:19;12.20;99.90
47382;DHT22;33128;51.580;5.170;2024-02-16T03:36:44;12.30;99.90
47382;DHT22;33128;51.580;5.170;2024-02-16T03:39:10;12.40;99.90
47382;DHT22;33128;51.580;5.170;2024-02-16T03:41:35;12.50;99.90
47382;DHT22;33128;51.580;5.170;2024-02-16T03:44:01;12.40;99.90
47382;DHT22;33128;51.580;5.170;2024-02-16T03:46:26;12.40;99.90
47382;DHT22;33128;51.580;5.170;2024-02-16T03:48:52;12.30;99.90
47382;DHT22;33128;51.580;5.170;2024-02-16T03:51:18;12.40;99.90
47382;DHT22;33128;51.580;5.170;2024-02-16T03:53:44;12.50;99.90
47382;DHT22;33128;51.580;5.170;2024-02-16T03:56:18;12.50;99.90
47382;DHT22;33128;51.580;5.170;2024-02-16T03:58:44;12.60;99.90
47382;DHT22;33128;51.580;5.170;2024-02-16T04:01:10;12.60;99.90
47382;DHT22;33128;51.580;5.170;2024-02-16T04:03:35;12.60;99.90
47382;DHT22;33128;51.580;5.170;2024-02-16T04:06:01;12.70;99.90
47382;DHT22;33128;51.580;5.170;2024-02-16T04:08:27;12.80;99.90
47382;DHT22;33128;51.580;5.170;2024-02-16T04:10:52;12.80;99.90
47382;DHT22;33128;51.580;5.170;2024-02-16T04:13:18;13.00;99.90
47382;DHT22;33128;51.580;5.170;2024-02-16T04:15:43;12.90;99.90
47382;DHT22;33128;51.580;5.170;2024-02-16T04:18:10;13.00;99.90
47382;DHT22;33128;51.580;5.170;2024-02-16T04:20:36;13.00;99.90
47382;DHT22;33128;51.580;5.170;2024-02-16T04:23:06;13.00;99.90
47382;DHT22;33128;51.580;5.170;2024-02-16T04:25:32;13.20;99.90
47382;DHT22;33128;51.580;5.170;2024-02-16T04:27:57;13.20;99.90
47382;DHT22;33128;51.580;5.170;2024-02-16T04:30:23;13.30;99.90
47382;DHT22;33128;51.580;5.170;2024-02-16T04:32:48;13.30;99.90
47382;DHT22;33128;51.580;5.170;2024-02-16T04:35:14;13.40;99.90
47382;DHT22;33128;51.580;5.170;2024-02-16T04:37:44;13.20;99.90
47382;DHT22;33128;51.580;5.170;2024-02-16T04:40:09;13.10;99.90
47382;DHT22;33128;51.580;5.170;2024-02-16T04:42:38;13.00;99.90
47382;DHT22;33128;51.580;5.170;2024-02-16T04:45:07;12.90;99.90
47382;DHT22;33128;51.580;5.170;2024-02-16T04:47:33;13.10;99.90
47382;DHT22;33128;51.580;5.170;2024-02-16T04:49:58;13.10;99.90
47382;DHT22;33128;51.580;5.170;2024-02-16T04:52:24;13.30;99.90
47382;DHT22;33128;51.580;5.170;2024-02-16T04:54:49;13.40;99.90
47382;DHT22;33128;51.580;5.170;2024-02-16T04:57:15;13.20;99.90
47382;DHT22;33128;51.580;5.170;2024-02-16T04:59:40;13.20;99.90
47382;DHT22;33128;51.580;5.170;2024-02-16T05:02:06;13.30;99.90
47382;DHT22;33128;51.580;5.170;2024-02-16T05:04:32;13.30;99.90
47382;DHT22;33128;51.580;5.170;2024-02-16T05:06:58;13.30;99.90
47382;DHT22;33128;51.580;5.170;2024-02-16T05:09:23;13.40;99.90
47382;DHT22;33128;51.580;5.170;2024-02-16T05:11:52;13.50;99.90
47382;DHT22;33128;51.580;5.170;2024-02-16T05:14:17;13.50;99.90
47382;DHT22;33128;51.580;5.170;2024-02-16T05:16:48;13.60;99.90
47382;DHT22;33128;51.580;5.170;2024-02-16T05:19:14;13.60;99.90
47382;DHT22;33128;51.580;5.170;2024-02-16T05:21:39;13.60;99.90
47382;DHT22;33128;51.580;5.170;2024-02-16T05:24:05;13.40;99.90
47382;DHT22;33128;51.580;5.170;2024-02-16T05:26:31;13.60;99.90
47382;DHT22;33128;51.580;5.170;2024-02-16T05:28:56;13.80;99.90
47382;DHT22;33128;51.580;5.170;2024-02-16T05:31:22;13.70;99.90
47382;DHT22;33128;51.580;5.170;2024-02-16T05:33:49;13.60;99.90
47382;DHT22;33128;51.580;5.170;2024-02-16T05:36:21;13.60;99.90
47382;DHT22;33128;51.580;5.170;2024-02-16T05:38:50;13.50;99.90
47382;DHT22;33128;51.580;5.170;2024-02-16T05:41:17;13.40;99.90
47382;DHT22;33128;51.580;5.170;2024-02-16T05:43:44;13.50;99.90
47382;DHT22;33128;51.580;5.170;2024-02-16T05:46:16;13.60;99.90
47382;DHT22;33128;51.580;5.170;2024-02-16T05:48:43;13.60;99.90
47382;DHT22;33128;51.580;5.170;2024-02-16T05:51:08;13.80;99.90
47382;DHT22;33128;51.580;5.170;2024-02-16T05:53:34;13.70;99.90
47382;DHT22;33128;51.580;5.170;2024-02-16T05:56:00;13.70;99.90
47382;DHT22;33128;51.580;5.170;2024-02-16T05:58:26;13.80;99.90
47382;DHT22;33128;51.580;5.170;2024-02-16T06:00:52;13.70;99.90
47382;DHT22;33128;51.580;5.170;2024-02-16T06:03:18;13.70;99.90
47382;DHT22;33128;51.580;5.170;2024-02-16T06:05:44;13.80;99.90
47382;DHT22;33128;51.580;5.170;2024-02-16T06:08:13;13.80;99.90
47382;DHT22;33128;51.580;5.170;2024-02-16T06:10:39;13.80;99.90
47382;DHT22;33128;51.580;5.170;2024-02-16T06:13:05;14.00;99.90
47382;DHT22;33128;51.580;5.170;2024-02-16T06:15:31;13.80;99.90
47382;DHT22;33128;51.580;5.170;2024-02-16T06:17:59;13.90;99.90
47382;DHT22;33128;51.580;5.170;2024-02-16T06:20:25;13.90;99.90
47382;DHT22;33128;51.580;5.170;2024-02-16T06:22:51;13.80;99.90
47382;DHT22;33128;51.580;5.170;2024-02-16T06:25:16;13.80;99.90
47382;DHT22;33128;51.580;5.170;2024-02-16T06:27:42;13.80;99.90
47382;DHT22;33128;51.580;5.170;2024-02-16T06:30:08;13.80;99.90
47382;DHT22;33128;51.580;5.170;2024-02-16T06:32:38;14.00;99.90
47382;DHT22;33128;51.580;5.170;2024-02-16T06:35:06;13.90;99.90
47382;DHT22;33128;51.580;5.170;2024-02-16T06:37:32;14.00;99.90
47382;DHT22;33128;51.580;5.170;2024-02-16T06:39:58;13.90;99.90
47382;DHT22;33128;51.580;5.170;2024-02-16T06:42:24;13.80;99.90
47382;DHT22;33128;51.580;5.170;2024-02-16T06:44:49;13.90;99.90
47382;DHT22;33128;51.580;5.170;2024-02-16T06:47:15;13.90;99.90
47382;DHT22;33128;51.580;5.170;2024-02-16T06:49:41;13.90;99.90
47382;DHT22;33128;51.580;5.170;2024-02-16T06:52:07;13.80;99.90
47382;DHT22;33128;51.580;5.170;2024-02-16T06:54:34;13.60;99.90
47382;DHT22;33128;51.580;5.170;2024-02-16T06:57:00;13.70;99.90
47382;DHT22;33128;51.580;5.170;2024-02-16T06:59:26;13.70;99.90
47382;DHT22;33128;51.580;5.170;2024-02-16T07:01:55;13.90;99.90
47382;DHT22;33128;51.580;5.170;2024-02-16T07:04:21;14.00;99.90
47382;DHT22;33128;51.580;5.170;2024-02-16T07:06:46;13.90;99.90
47382;DHT22;33128;51.580;5.170;2024-02-16T07:09:12;13.90;99.90
47382;DHT22;33128;51.580;5.170;2024-02-16T07:11:40;13.80;99.90
47382;DHT22;33128;51.580;5.170;2024-02-16T07:14:06;13.90;99.90
47382;DHT22;33128;51.580;5.170;2024-02-16T07:16:33;13.90;99.90
47382;DHT22;33128;51.580;5.170;2024-02-16T07:18:59;13.90;99.90
47382;DHT22;33128;51.580;5.170;2024-02-16T07:21:25;13.90;99.90
47382;DHT22;33128;51.580;5.170;2024-02-16T07:23:52;14.00;99.90
47382;DHT22;33128;51.580;5.170;2024-02-16T07:26:18;14.30;99.90
47382;DHT22;33128;51.580;5.170;2024-02-16T07:28:43;14.20;99.90
47382;DHT22;33128;51.580;5.170;2024-02-16T07:31:09;14.10;99.90
47382;DHT22;33128;51.580;5.170;2024-02-16T07:33:36;14.00;99.90
47382;DHT22;33128;51.580;5.170;2024-02-16T07:36:02;14.00;99.90
47382;DHT22;33128;51.580;5.170;2024-02-16T07:38:27;14.00;99.90
47382;DHT22;33128;51.580;5.170;2024-02-16T07:40:54;14.00;99.90
47382;DHT22;33128;51.580;5.170;2024-02-16T07:43:20;14.10;99.90
47382;DHT22;33128;51.580;5.170;2024-02-16T07:45:47;14.00;99.90
47382;DHT22;33128;51.580;5.170;2024-02-16T07:48:12;14.00;99.90
47382;DHT22;33128;51.580;5.170;2024-02-16T07:50:38;14.10;99.90
47382;DHT22;33128;51.580;5.170;2024-02-16T07:53:04;14.10;99.90
47382;DHT22;33128;51.580;5.170;2024-02-16T07:55:29;14.00;99.90
47382;DHT22;33128;51.580;5.170;2024-02-16T07:58:01;14.00;99.90
47382;DHT22;33128;51.580;5.170;2024-02-16T08:00:26;14.00;99.90
47382;DHT22;33128;51.580;5.170;2024-02-16T08:02:53;14.20;99.90
47382;DHT22;33128;51.580;5.170;2024-02-16T08:05:19;14.10;99.90
47382;DHT22;33128;51.580;5.170;2024-02-16T08:07:47;14.00;99.90
47382;DHT22;33128;51.580;5.170;2024-02-16T08:10:13;14.10;99.90
47382;DHT22;33128;51.580;5.170;2024-02-16T08:12:39;14.10;99.90
47382;DHT22;33128;51.580;5.170;2024-02-16T08:15:05;15.00;99.90
47382;DHT22;33128;51.580;5.170;2024-02-16T08:17:34;15.40;99.90
47382;DHT22;33128;51.580;5.170;2024-02-16T08:20:00;15.80;99.90
47382;DHT22;33128;51.580;5.170;2024-02-16T08:22:26;15.90;99.90
47382;DHT22;33128;51.580;5.170;2024-02-16T08:24:51;16.00;99.90
47382;DHT22;33128;51.580;5.170;2024-02-16T08:27:20;16.10;99.90
47382;DHT22;33128;51.580;5.170;2024-02-16T08:29:46;16.10;99.90
47382;DHT22;33128;51.580;5.170;2024-02-16T08:32:11;16.20;99.90
47382;DHT22;33128;51.580;5.170;2024-02-16T08:34:40;16.20;99.90
47382;DHT22;33128;51.580;5.170;2024-02-16T08:37:06;16.30;99.90
47382;DHT22;33128;51.580;5.170;2024-02-16T08:39:33;16.30;99.90
47382;DHT22;33128;51.580;5.170;2024-02-16T08:42:00;16.30;99.90
47382;DHT22;33128;51.580;5.170;2024-02-16T08:44:26;16.30;99.90
47382;DHT22;33128;51.580;5.170;2024-02-16T08:46:52;16.40;99.90
47382;DHT22;33128;51.580;5.170;2024-02-16T08:49:18;16.50;99.90
47382;DHT22;33128;51.580;5.170;2024-02-16T08:51:44;16.40;99.90
47382;DHT22;33128;51.580;5.170;2024-02-16T08:54:10;16.50;99.90
47382;DHT22;33128;51.580;5.170;2024-02-16T08:56:36;16.50;99.90
47382;DHT22;33128;51.580;5.170;2024-02-16T08:59:02;16.50;99.90
47382;DHT22;33128;51.580;5.170;2024-02-16T09:01:37;16.50;99.90
47382;DHT22;33128;51.580;5.170;2024-02-16T09:04:04;16.50;99.90
47382;DHT22;33128;51.580;5.170;2024-02-16T09:06:30;16.60;99.90
47382;DHT22;33128;51.580;5.170;2024-02-16T09:08:56;16.60;99.90
47382;DHT22;33128;51.580;5.170;2024-02-16T09:11:23;16.60;99.90
47382;DHT22;33128;51.580;5.170;2024-02-16T09:13:49;16.70;99.90
47382;DHT22;33128;51.580;5.170;2024-02-16T09:16:15;16.70;99.90
47382;DHT22;33128;51.580;5.170;2024-02-16T09:18:40;16.70;99.90
47382;DHT22;33128;51.580;5.170;2024-02-16T09:21:06;16.80;99.90
47382;DHT22;33128;51.580;5.170;2024-02-16T09:23:32;16.80;99.90
47382;DHT22;33128;51.580;5.170;2024-02-16T09:25:58;17.00;99.90
47382;DHT22;33128;51.580;5.170;2024-02-16T09:28:25;17.00;99.90
47382;DHT22;33128;51.580;5.170;2024-02-16T09:30:52;17.00;99.90
47382;DHT22;33128;51.580;5.170;2024-02-16T09:33:17;17.00;99.90
47382;DHT22;33128;51.580;5.170;2024-02-16T09:35:43;17.10;99.90
47382;DHT22;33128;51.580;5.170;2024-02-16T09:38:09;17.10;99.90
47382;DHT22;33128;51.580;5.170;2024-02-16T09:40:37;17.10;99.90
47382;DHT22;33128;51.580;5.170;2024-02-16T09:45:29;17.10;99.90
47382;DHT22;33128;51.580;5.170;2024-02-16T09:47:58;17.10;99.90
47382;DHT22;33128;51.580;5.170;2024-02-16T09:50:24;17.10;99.90
47382;DHT22;33128;51.580;5.170;2024-02-16T09:52:50;17.00;99.90
47382;DHT22;33128;51.580;5.170;2024-02-16T09:55:17;17.00;99.90
47382;DHT22;33128;51.580;5.170;2024-02-16T09:57:43;17.00;99.90
47382;DHT22;33128;51.580;5.170;2024-02-16T10:00:10;17.00;99.90
47382;DHT22;33128;51.580;5.170;2024-02-16T10:02:48;16.90;99.90
47382;DHT22;33128;51.580;5.170;2024-02-16T10:05:19;16.90;99.90
47382;DHT22;33128;51.580;5.170;2024-02-16T10:07:45;16.90;99.90
47382;DHT22;33128;51.580;5.170;2024-02-16T10:10:25;16.90;99.90
47382;DHT22;33128;51.580;5.170;2024-02-16T10:13:06;16.90;99.90
47382;DHT22;33128;51.580;5.170;2024-02-16T10:15:33;16.90;99.90
47382;DHT22;33128;51.580;5.170;2024-02-16T10:18:06;16.90;99.90
47382;DHT22;33128;51.580;5.170;2024-02-16T10:20:32;16.80;99.90
47382;DHT22;33128;51.580;5.170;2024-02-16T10:23:11;16.80;99.90
47382;DHT22;33128;51.580;5.170;2024-02-16T10:25:38;16.80;99.90
47382;DHT22;33128;51.580;5.170;2024-02-16T10:28:08;16.80;99.90
47382;DHT22;33128;51.580;5.170;2024-02-16T10:30:37;16.80;99.90
47382;DHT22;33128;51.580;5.170;2024-02-16T10:33:05;16.80;99.90
47382;DHT22;33128;51.580;5.170;2024-02-16T10:35:34;16.80;99.90
47382;DHT22;33128;51.580;5.170;2024-02-16T10:38:05;16.80;99.90
47382;DHT22;33128;51.580;5.170;2024-02-16T10:40:37;16.80;99.90
47382;DHT22;33128;51.580;5.170;2024-02-16T10:43:07;16.70;99.90
47382;DHT22;33128;51.580;5.170;2024-02-16T10:45:35;16.70;99.90
47382;DHT22;33128;51.580;5.170;2024-02-16T10:48:05;16.70;99.90
47382;DHT22;33128;51.580;5.170;2024-02-16T10:50:32;16.70;99.90
47382;DHT22;33128;51.580;5.170;2024-02-16T10:53:03;16.70;99.90
47382;DHT22;33128;51.580;5.170;2024-02-16T10:55:30;16.70;99.90
47382;DHT22;33128;51.580;5.170;2024-02-16T10:57:56;16.60;99.90
47382;DHT22;33128;51.580;5.170;2024-02-16T11:00:23;16.60;99.90
47382;DHT22;33128;51.580;5.170;2024-02-16T11:02:58;16.70;99.90
47382;DHT22;33128;51.580;5.170;2024-02-16T11:05:36;16.60;99.90
47382;DHT22;33128;51.580;5.170;2024-02-16T11:08:13;16.60;99.90
47382;DHT22;33128;51.580;5.170;2024-02-16T11:11:00;16.60;99.90
47382;DHT22;33128;51.580;5.170;2024-02-16T11:13:32;16.60;99.90
47382;DHT22;33128;51.580;5.170;2024-02-16T11:16:09;16.60;99.90
47382;DHT22;33128;51.580;5.170;2024-02-16T11:18:39;16.60;99.90
47382;DHT22;33128;51.580;5.170;2024-02-16T11:21:12;16.60;99.90
47382;DHT22;33128;51.580;5.170;2024-02-16T11:23:40;16.60;99.90
47382;DHT22;33128;51.580;5.170;2024-02-16T11:26:09;16.70;99.90
47382;DHT22;33128;51.580;5.170;2024-02-16T11:28:37;16.70;99.90
47382;DHT22;33128;51.580;5.170;2024-02-16T11:31:04;16.70;99.90
47382;DHT22;33128;51.580;5.170;2024-02-16T11:33:31;16.70;99.90
47382;DHT22;33128;51.580;5.170;2024-02-16T11:36:05;16.70;99.90
47382;DHT22;33128;51.580;5.170;2024-02-16T11:38:32;16.70;99.90
47382;DHT22;33128;51.580;5.170;2024-02-16T11:41:05;16.80;99.90
47382;DHT22;33128;51.580;5.170;2024-02-16T11:43:31;16.70;99.90
47382;DHT22;33128;51.580;5.170;2024-02-16T11:46:15;16.70;99.90
47382;DHT22;33128;51.580;5.170;2024-02-16T11:48:43;16.70;99.90
47382;DHT22;33128;51.580;5.170;2024-02-16T11:51:15;16.70;99.90
47382;DHT22;33128;51.580;5.170;2024-02-16T11:53:42;16.70;99.90
47382;DHT22;33128;51.580;5.170;2024-02-16T11:56:22;16.70;99.90
47382;DHT22;33128;51.580;5.170;2024-02-16T11:58:47;16.70;99.90
47382;DHT22;33128;51.580;5.170;2024-02-16T12:01:13;16.70;99.90
47382;DHT22;33128;51.580;5.170;2024-02-16T12:03:41;16.70;99.90
47382;DHT22;33128;51.580;5.170;2024-02-16T12:06:20;16.70;99.90
47382;DHT22;33128;51.580;5.170;2024-02-16T12:08:46;16.70;99.90
47382;DHT22;33128;51.580;5.170;2024-02-16T12:11:23;16.70;99.90
47382;DHT22;33128;51.580;5.170;2024-02-16T12:13:49;16.70;99.90
47382;DHT22;33128;51.580;5.170;2024-02-16T12:16:14;16.70;99.90
47382;DHT22;33128;51.580;5.170;2024-02-16T12:18:40;16.70;99.90
47382;DHT22;33128;51.580;5.170;2024-02-16T12:21:06;16.80;99.90
47382;DHT22;33128;51.580;5.170;2024-02-16T12:23:33;16.80;99.90
47382;DHT22;33128;51.580;5.170;2024-02-16T12:26:04;16.80;99.90
47382;DHT22;33128;51.580;5.170;2024-02-16T12:28:31;16.80;99.90
47382;DHT22;33128;51.580;5.170;2024-02-16T12:30:59;16.80;99.90
47382;DHT22;33128;51.580;5.170;2024-02-16T12:33:28;16.80;99.90
47382;DHT22;33128;51.580;5.170;2024-02-16T12:35:56;16.80;99.90
47382;DHT22;33128;51.580;5.170;2024-02-16T12:38:25;16.80;99.90
47382;DHT22;33128;51.580;5.170;2024-02-16T12:40:51;16.80;99.90
47382;DHT22;33128;51.580;5.170;2024-02-16T12:43:16;16.80;99.90
47382;DHT22;33128;51.580;5.170;2024-02-16T12:45:44;16.80;99.90
47382;DHT22;33128;51.580;5.170;2024-02-16T12:48:09;16.80;99.90
47382;DHT22;33128;51.580;5.170;2024-02-16T12:50:36;16.70;99.90
47382;DHT22;33128;51.580;5.170;2024-02-16T12:53:04;16.70;99.90
47382;DHT22;33128;51.580;5.170;2024-02-16T12:55:33;16.60;99.90
47382;DHT22;33128;51.580;5.170;2024-02-16T12:57:58;16.70;99.90
47382;DHT22;33128;51.580;5.170;2024-02-16T13:00:24;16.70;99.90
47382;DHT22;33128;51.580;5.170;2024-02-16T13:02:50;16.70;99.90
47382;DHT22;33128;51.580;5.170;2024-02-16T13:05:19;16.70;99.90
47382;DHT22;33128;51.580;5.170;2024-02-16T13:07:44;16.80;99.90
47382;DHT22;33128;51.580;5.170;2024-02-16T13:10:13;16.90;99.90
47382;DHT22;33128;51.580;5.170;2024-02-16T13:12:42;17.00;99.90
47382;DHT22;33128;51.580;5.170;2024-02-16T13:15:08;17.10;99.90
47382;DHT22;33128;51.580;5.170;2024-02-16T13:17:34;17.20;99.90
47382;DHT22;33128;51.580;5.170;2024-02-16T13:20:00;17.40;99.90
47382;DHT22;33128;51.580;5.170;2024-02-16T13:22:38;17.50;99.90
47382;DHT22;33128;51.580;5.170;2024-02-16T13:25:05;17.60;99.90
47382;DHT22;33128;51.580;5.170;2024-02-16T13:27:32;17.60;99.90
47382;DHT22;33128;51.580;5.170;2024-02-16T13:29:58;17.60;99.90
47382;DHT22;33128;51.580;5.170;2024-02-16T13:32:24;17.60;99.90
47382;DHT22;33128;51.580;5.170;2024-02-16T13:34:53;17.60;99.90
47382;DHT22;33128;51.580;5.170;2024-02-16T13:37:19;17.60;99.90
47382;DHT22;33128;51.580;5.170;2024-02-16T13:39:44;17.60;99.90
47382;DHT22;33128;51.580;5.170;2024-02-16T13:42:11;17.50;99.90
47382;DHT22;33128;51.580;5.170;2024-02-16T13:44:38;17.50;99.90
47382;DHT22;33128;51.580;5.170;2024-02-16T13:47:04;17.50;99.90
47382;DHT22;33128;51.580;5.170;2024-02-16T13:49:30;17.50;99.90
47382;DHT22;33128;51.580;5.170;2024-02-16T13:51:55;17.50;99.90
47382;DHT22;33128;51.580;5.170;2024-02-16T13:54:24;17.50;99.90
47382;DHT22;33128;51.580;5.170;2024-02-16T13:56:50;17.50;99.90
47382;DHT22;33128;51.580;5.170;2024-02-16T13:59:19;17.40;99.90
47382;DHT22;33128;51.580;5.170;2024-02-16T14:01:44;17.30;99.90
47382;DHT22;33128;51.580;5.170;2024-02-16T14:04:10;17.30;99.90
47382;DHT22;33128;51.580;5.170;2024-02-16T14:06:36;17.30;99.90
47382;DHT22;33128;51.580;5.170;2024-02-16T14:09:04;17.20;99.90
47382;DHT22;33128;51.580;5.170;2024-02-16T14:11:35;17.20;99.90
47382;DHT22;33128;51.580;5.170;2024-02-16T14:14:01;17.20;99.90
47382;DHT22;33128;51.580;5.170;2024-02-16T14:16:27;17.20;99.90
47382;DHT22;33128;51.580;5.170;2024-02-16T14:18:52;17.10;99.90
47382;DHT22;33128;51.580;5.170;2024-02-16T14:21:18;17.10;99.90
47382;DHT22;33128;51.580;5.170;2024-02-16T14:23:44;17.00;99.90
47382;DHT22;33128;51.580;5.170;2024-02-16T14:26:09;17.10;99.90
47382;DHT22;33128;51.580;5.170;2024-02-16T14:28:35;17.00;99.90
47382;DHT22;33128;51.580;5.170;2024-02-16T14:31:01;17.00;99.90
47382;DHT22;33128;51.580;5.170;2024-02-16T14:33:28;17.00;99.90
47382;DHT22;33128;51.580;5.170;2024-02-16T14:35:53;17.00;99.90
47382;DHT22;33128;51.580;5.170;2024-02-16T14:38:22;17.00;99.90
47382;DHT22;33128;51.580;5.170;2024-02-16T14:40:50;17.00;99.90
47382;DHT22;33128;51.580;5.170;2024-02-16T14:43:16;17.00;99.90
47382;DHT22;33128;51.580;5.170;2024-02-16T14:45:44;17.00;99.90
47382;DHT22;33128;51.580;5.170;2024-02-16T14:48:09;16.90;99.90
47382;DHT22;33128;51.580;5.170;2024-02-16T14:50:37;17.00;99.90
47382;DHT22;33128;51.580;5.170;2024-02-16T14:53:06;17.00;99.90
47382;DHT22;33128;51.580;5.170;2024-02-16T14:55:32;17.00;99.90
47382;DHT22;33128;51.580;5.170;2024-02-16T14:57:57;17.00;99.90
47382;DHT22;33128;51.580;5.170;2024-02-16T15:00:23;17.00;99.90
47382;DHT22;33128;51.580;5.170;2024-02-16T15:02:49;17.00;99.90
47382;DHT22;33128;51.580;5.170;2024-02-16T15:05:15;17.10;99.90
47382;DHT22;33128;51.580;5.170;2024-02-16T15:07:41;17.20;99.90
47382;DHT22;33128;51.580;5.170;2024-02-16T15:10:07;17.20;99.90
47382;DHT22;33128;51.580;5.170;2024-02-16T15:12:33;17.20;99.90
47382;DHT22;33128;51.580;5.170;2024-02-16T15:14:59;16.80;99.90
47382;DHT22;33128;51.580;5.170;2024-02-16T15:17:24;16.70;99.90
47382;DHT22;33128;51.580;5.170;2024-02-16T15:19:50;16.70;99.90
47382;DHT22;33128;51.580;5.170;2024-02-16T15:22:16;16.60;99.90
47382;DHT22;33128;51.580;5.170;2024-02-16T15:24:42;16.40;99.90
47382;DHT22;33128;51.580;5.170;2024-02-16T15:27:10;16.40;99.90
47382;DHT22;33128;51.580;5.170;2024-02-16T15:29:37;16.30;99.90
47382;DHT22;33128;51.580;5.170;2024-02-16T15:32:02;16.20;99.90